Time;durP1;ratioP1;P1;durP2;ratioP2;P2;SDS_P1;SDS_P2;PMS_P1;PMS_P2;Temp;Humidity;BMP_temperature;BMP_pressure;BME280_temperature;BME280_humidity;BME280_pressure;Samples;Min_cycle;Max_cycle;Signal;HPM_P1;HPM_P2
2023/01/27 00:02:43;;;;;;;49.90;23.42;;;;;;;;;;4981706;28;20058;-74
2023/01/27 00:05:29;;;;;;;59.80;23.58;;;;;;;;;;4995909;28;20027;-74
2023/01/27 00:08:15;;;;;;;50.60;23.23;;;;;;;;;;5007648;28;20053;-73
2023/01/27 00:14:05;;;;;;;57.05;24.05;;;;;;;;;;4995757;28;20077;-74
2023/01/27 00:16:51;;;;;;;55.70;23.17;;;;;;;;;;4981846;28;20188;-75
2023/01/27 00:19:37;;;;;;;51.38;22.20;;;;;;;;;;4981733;28;20022;-74
2023/01/27 00:25:26;;;;;;;53.80;23.13;;;;;;;;;;4995660;28;20022;-73
2023/01/27 00:28:21;;;;;;;52.63;22.67;;;;;;;;;;4994630;28;20026;-74
2023/01/27 00:34:12;;;;;;;62.55;24.25;;;;;;;;;;4996111;28;20026;-73
2023/01/27 00:36:58;;;;;;;47.88;22.38;;;;;;;;;;4975631;28;20074;-74
2023/01/27 00:39:43;;;;;;;55.20;22.30;;;;;;;;;;4975471;28;20019;-75
2023/01/27 00:42:29;;;;;;;56.30;22.73;;;;;;;;;;4975189;28;20050;-73
2023/01/27 00:48:18;;;;;;;49.78;22.58;;;;;;;;;;4978701;28;20015;-74
2023/01/27 00:51:04;;;;;;;55.35;23.80;;;;;;;;;;4979890;28;20054;-74
2023/01/27 00:53:50;;;;;;;56.97;22.85;;;;;;;;;;4977325;28;20087;-74
2023/01/27 00:56:35;;;;;;;59.20;22.40;;;;;;;;;;4976611;28;20447;-73
2023/01/27 00:59:21;;;;;;;55.05;23.52;;;;;;;;;;4976007;28;20030;-73
2023/01/27 01:02:07;;;;;;;59.95;23.30;;;;;;;;;;4975806;28;20101;-74
2023/01/27 01:04:53;;;;;;;51.55;22.75;;;;;;;;;;4976646;28;20325;-74
2023/01/27 01:07:38;;;;;;;60.00;24.05;;;;;;;;;;4976743;28;20106;-75
2023/01/27 01:10:24;;;;;;;55.30;23.25;;;;;;;;;;4995327;28;20066;-74
2023/01/27 01:13:13;;;;;;;55.45;22.80;;;;;;;;;;4995902;28;20015;-73
2023/01/27 01:16:04;;;;;;;49.83;23.88;;;;;;;;;;4986428;28;20054;-75
2023/01/27 01:18:50;;;;;;;63.45;24.38;;;;;;;;;;4979528;28;20037;-74
2023/01/27 01:21:36;;;;;;;59.00;24.52;;;;;;;;;;4981274;28;20023;-73
2023/01/27 01:24:22;;;;;;;57.67;23.27;;;;;;;;;;4980309;28;20106;-74
2023/01/27 01:27:07;;;;;;;56.78;24.60;;;;;;;;;;4989852;28;20034;-74
2023/01/27 01:29:53;;;;;;;53.75;22.77;;;;;;;;;;4979610;28;20027;-75
2023/01/27 01:32:38;;;;;;;56.22;22.58;;;;;;;;;;4979571;28;20034;-75
2023/01/27 01:35:24;;;;;;;52.53;22.35;;;;;;;;;;4988004;28;20057;-73
2023/01/27 01:38:10;;;;;;;54.53;22.50;;;;;;;;;;4998952;28;20077;-73
2023/01/27 01:40:55;;;;;;;52.50;21.70;;;;;;;;;;4999934;28;20049;-74
2023/01/27 01:43:41;;;;;;;43.97;20.83;;;;;;;;;;4999679;28;20406;-74
2023/01/27 01:46:27;;;;;;;51.15;20.45;;;;;;;;;;4998257;28;20023;-73
2023/01/27 01:49:13;;;;;;;45.85;20.50;;;;;;;;;;4999614;28;20018;-74
2023/01/27 01:52:01;;;;;;;54.92;21.27;;;;;;;;;;4999310;28;20332;-73
2023/01/27 01:54:50;;;;;;;48.65;20.15;;;;;;;;;;4999669;28;20015;-73
2023/01/27 01:57:41;;;;;;;45.50;19.45;;;;;;;;;;4999115;28;20067;-74
2023/01/27 02:00:27;;;;;;;42.17;18.70;;;;;;;;;;4998809;28;20022;-73
2023/01/27 02:03:12;;;;;;;45.15;19.80;;;;;;;;;;4998704;28;20037;-74
2023/01/27 02:05:58;;;;;;;41.22;18.73;;;;;;;;;;4997826;28;20478;-72
2023/01/27 02:08:45;;;;;;;43.70;18.85;;;;;;;;;;4998112;28;20112;-72
2023/01/27 02:11:30;;;;;;;42.35;18.52;;;;;;;;;;4998046;28;20018;-72
2023/01/27 02:14:16;;;;;;;41.42;19.08;;;;;;;;;;4998521;28;20022;-72
2023/01/27 02:17:03;;;;;;;45.80;19.13;;;;;;;;;;4998504;28;20022;-73
2023/01/27 02:20:17;;;;;;;41.15;19.27;;;;;;;;;;4998077;28;20019;-73
2023/01/27 02:23:06;;;;;;;37.05;17.00;;;;;;;;;;4992734;28;20110;-73
2023/01/27 02:25:52;;;;;;;37.58;17.67;;;;;;;;;;4998608;28;20022;-73
2023/01/27 02:28:37;;;;;;;39.17;17.75;;;;;;;;;;4997833;28;20018;-73
2023/01/27 02:31:23;;;;;;;40.55;17.73;;;;;;;;;;4998377;28;20023;-73
2023/01/27 02:34:13;;;;;;;42.05;18.20;;;;;;;;;;4998178;28;20465;-73
2023/01/27 02:37:02;;;;;;;40.20;17.88;;;;;;;;;;4977996;28;20102;-73
2023/01/27 02:39:49;;;;;;;36.60;17.08;;;;;;;;;;4978192;28;20547;-72
2023/01/27 02:42:35;;;;;;;40.03;18.00;;;;;;;;;;4978109;28;20015;-72
2023/01/27 02:45:20;;;;;;;40.92;17.33;;;;;;;;;;4977547;28;20025;-73
2023/01/27 02:48:06;;;;;;;37.65;17.13;;;;;;;;;;4975857;28;20535;-73
2023/01/27 02:50:51;;;;;;;37.70;17.85;;;;;;;;;;4978339;28;20045;-74
2023/01/27 02:53:37;;;;;;;33.35;16.42;;;;;;;;;;4978070;28;20027;-73
2023/01/27 02:56:23;;;;;;;33.88;16.13;;;;;;;;;;4978512;28;20102;-72
2023/01/27 02:59:08;;;;;;;34.78;16.25;;;;;;;;;;4977809;28;20455;-72
2023/01/27 03:01:54;;;;;;;35.53;15.50;;;;;;;;;;4962307;28;20345;-74
2023/01/27 03:04:39;;;;;;;34.72;15.68;;;;;;;;;;4977162;28;20027;-73
2023/01/27 03:07:25;;;;;;;33.50;15.48;;;;;;;;;;4977537;28;20030;-73
2023/01/27 03:10:11;;;;;;;36.13;15.45;;;;;;;;;;4964042;28;20030;-73
2023/01/27 03:12:56;;;;;;;33.75;15.63;;;;;;;;;;4976446;28;20093;-73
2023/01/27 03:18:48;;;;;;;36.78;16.73;;;;;;;;;;4977599;28;20031;-74
2023/01/27 03:21:34;;;;;;;36.17;16.65;;;;;;;;;;4976891;28;20069;-73
2023/01/27 03:24:19;;;;;;;32.90;15.50;;;;;;;;;;4976553;28;20026;-73
2023/01/27 03:27:05;;;;;;;35.33;15.70;;;;;;;;;;4975681;28;20019;-73
2023/01/27 03:29:56;;;;;;;31.55;15.38;;;;;;;;;;4976871;28;20022;-74
2023/01/27 03:32:45;;;;;;;37.72;16.48;;;;;;;;;;4977381;28;20069;-73
2023/01/27 03:35:37;;;;;;;30.35;16.13;;;;;;;;;;4985459;28;20050;-74
2023/01/27 03:47:35;;;;;;;32.70;17.05;;;;;;;;;;4996929;28;20077;-74
2023/01/27 03:50:30;;;;;;;37.97;18.42;;;;;;;;;;4997559;28;20040;-73
2023/01/27 03:53:15;;;;;;;36.20;17.95;;;;;;;;;;4996514;28;20027;-73
2023/01/27 03:56:01;;;;;;;37.15;18.35;;;;;;;;;;4995391;28;20344;-74
2023/01/27 03:58:48;;;;;;;38.33;18.73;;;;;;;;;;4996399;28;20018;-74
2023/01/27 04:01:33;;;;;;;41.70;18.60;;;;;;;;;;4996180;28;20072;-74
2023/01/27 04:07:23;;;;;;;38.33;18.92;;;;;;;;;;4996599;28;20018;-75
2023/01/27 04:10:09;;;;;;;42.20;19.13;;;;;;;;;;4995699;28;20096;-73
2023/01/27 04:12:55;;;;;;;40.00;18.90;;;;;;;;;;4995043;28;20022;-74
2023/01/27 04:15:40;;;;;;;39.10;18.65;;;;;;;;;;4995647;28;20161;-74
2023/01/27 04:18:26;;;;;;;43.13;20.30;;;;;;;;;;4995735;28;20030;-73
2023/01/27 04:21:12;;;;;;;43.30;19.65;;;;;;;;;;4995602;28;20022;-74
2023/01/27 04:23:58;;;;;;;41.90;18.75;;;;;;;;;;4995581;28;20014;-74
2023/01/27 04:26:44;;;;;;;39.67;19.50;;;;;;;;;;4995244;28;20022;-74
2023/01/27 04:29:30;;;;;;;40.70;18.98;;;;;;;;;;4996191;28;20026;-74
2023/01/27 04:32:16;;;;;;;39.65;19.38;;;;;;;;;;4995285;28;20022;-74
2023/01/27 04:35:01;;;;;;;40.13;19.52;;;;;;;;;;4995166;28;20431;-74
2023/01/27 04:37:47;;;;;;;36.95;18.90;;;;;;;;;;4995261;28;20101;-74
2023/01/27 04:40:32;;;;;;;37.97;19.65;;;;;;;;;;4995192;28;20026;-75
2023/01/27 04:43:18;;;;;;;42.92;19.50;;;;;;;;;;4995490;28;20044;-74
2023/01/27 04:46:04;;;;;;;42.15;19.80;;;;;;;;;;4994443;28;20132;-74
2023/01/27 04:48:49;;;;;;;37.80;19.02;;;;;;;;;;4995788;28;20072;-74
2023/01/27 04:51:35;;;;;;;39.28;18.70;;;;;;;;;;4995140;28;20049;-74
2023/01/27 04:54:20;;;;;;;35.38;18.75;;;;;;;;;;4998083;28;20101;-74
2023/01/27 04:57:06;;;;;;;41.92;20.33;;;;;;;;;;4999776;28;20034;-74
2023/01/27 04:59:51;;;;;;;42.42;20.42;;;;;;;;;;4999918;28;20018;-74
2023/01/27 05:02:37;;;;;;;44.35;19.15;;;;;;;;;;4999473;28;20414;-74
2023/01/27 05:05:23;;;;;;;40.67;18.85;;;;;;;;;;4999765;28;20321;-73
2023/01/27 05:08:09;;;;;;;37.67;18.00;;;;;;;;;;4999652;28;20114;-74
2023/01/27 05:10:54;;;;;;;38.50;18.48;;;;;;;;;;4998603;28;20045;-72
2023/01/27 05:13:40;;;;;;;36.63;18.38;;;;;;;;;;4998372;28;20130;-74
2023/01/27 05:16:26;;;;;;;37.80;18.02;;;;;;;;;;4998560;28;20029;-73
2023/01/27 05:19:11;;;;;;;37.50;18.05;;;;;;;;;;4999710;28;20026;-74
2023/01/27 05:21:57;;;;;;;35.92;17.58;;;;;;;;;;4999476;28;20022;-74
2023/01/27 05:24:43;;;;;;;34.85;17.15;;;;;;;;;;4999062;28;20139;-73
2023/01/27 05:27:28;;;;;;;36.58;18.48;;;;;;;;;;4998815;28;20366;-73
2023/01/27 05:30:14;;;;;;;40.45;19.80;;;;;;;;;;4999252;28;20527;-74
2023/01/27 05:32:59;;;;;;;39.67;19.00;;;;;;;;;;4998275;28;20359;-72
2023/01/27 05:35:45;;;;;;;42.22;20.70;;;;;;;;;;4999013;28;20406;-73
2023/01/27 05:38:30;;;;;;;41.38;20.88;;;;;;;;;;4999263;28;20109;-74
2023/01/27 05:41:17;;;;;;;43.47;21.25;;;;;;;;;;4998885;28;20113;-73
2023/01/27 05:44:03;;;;;;;43.95;21.25;;;;;;;;;;4984198;28;20019;-73
2023/01/27 05:46:49;;;;;;;46.80;22.00;;;;;;;;;;4996905;28;20113;-73
2023/01/27 05:49:34;;;;;;;48.22;22.50;;;;;;;;;;4999224;28;20054;-74
2023/01/27 05:52:20;;;;;;;51.08;22.73;;;;;;;;;;4984753;28;20034;-73
2023/01/27 05:55:06;;;;;;;49.10;21.92;;;;;;;;;;4998471;28;20030;-74
2023/01/27 05:57:51;;;;;;;52.72;23.58;;;;;;;;;;4998709;28;20019;-73
2023/01/27 06:00:37;;;;;;;57.28;24.30;;;;;;;;;;4998444;28;20027;-74
2023/01/27 06:03:22;;;;;;;51.13;22.90;;;;;;;;;;4998695;28;20138;-73
2023/01/27 06:06:09;;;;;;;53.25;23.15;;;;;;;;;;4996240;28;20018;-72
2023/01/27 06:08:54;;;;;;;51.15;22.75;;;;;;;;;;4997861;28;20018;-73
2023/01/27 06:11:40;;;;;;;54.63;22.77;;;;;;;;;;4998314;28;20026;-72
2023/01/27 06:14:25;;;;;;;47.10;22.98;;;;;;;;;;4998697;28;20041;-73
2023/01/27 06:17:11;;;;;;;49.15;23.40;;;;;;;;;;4998272;28;20049;-73
2023/01/27 06:19:56;;;;;;;49.22;22.80;;;;;;;;;;4998459;28;20048;-73
2023/01/27 06:22:42;;;;;;;51.92;23.55;;;;;;;;;;4996856;28;20089;-73
2023/01/27 06:25:27;;;;;;;45.88;23.70;;;;;;;;;;4998199;28;20010;-73
2023/01/27 06:28:14;;;;;;;54.22;26.52;;;;;;;;;;4998257;28;20038;-73
2023/01/27 06:31:07;;;;;;;49.05;23.30;;;;;;;;;;4995805;28;20415;-72
2023/01/27 06:33:52;;;;;;;58.30;25.63;;;;;;;;;;4997765;28;20057;-73
2023/01/27 06:36:38;;;;;;;49.33;22.83;;;;;;;;;;4997181;28;20129;-73
2023/01/27 06:39:23;;;;;;;53.42;23.40;;;;;;;;;;4996927;28;20037;-73
2023/01/27 06:42:09;;;;;;;52.33;23.02;;;;;;;;;;5004885;28;20014;-72
2023/01/27 06:44:54;;;;;;;46.58;21.83;;;;;;;;;;5009906;28;20074;-74
2023/01/27 06:47:40;;;;;;;43.83;20.63;;;;;;;;;;5002846;28;20109;-74
2023/01/27 06:50:27;;;;;;;43.35;20.83;;;;;;;;;;5001534;28;20026;-73
2023/01/27 06:53:13;;;;;;;44.67;22.00;;;;;;;;;;4998705;28;20047;-74
2023/01/27 06:55:59;;;;;;;43.92;20.83;;;;;;;;;;4998038;28;20050;-72
2023/01/27 06:58:44;;;;;;;42.70;20.08;;;;;;;;;;4998705;28;20026;-74
2023/01/27 07:01:30;;;;;;;39.78;20.02;;;;;;;;;;4995567;28;20018;-74
2023/01/27 07:04:15;;;;;;;38.95;19.13;;;;;;;;;;4996772;28;20025;-73
2023/01/27 07:07:01;;;;;;;42.45;19.02;;;;;;;;;;4997841;28;20442;-73
2023/01/27 07:09:47;;;;;;;43.53;20.38;;;;;;;;;;4997273;28;20026;-72
2023/01/27 07:12:36;;;;;;;40.50;18.73;;;;;;;;;;4997735;28;20418;-73
2023/01/27 07:15:22;;;;;;;34.47;17.95;;;;;;;;;;4994714;28;20412;-73
2023/01/27 07:18:08;;;;;;;38.80;18.20;;;;;;;;;;5003401;28;20033;-72
2023/01/27 07:20:54;;;;;;;39.45;18.25;;;;;;;;;;5011747;28;20035;-73
2023/01/27 07:23:39;;;;;;;37.08;17.95;;;;;;;;;;4998729;28;20358;-74
2023/01/27 07:26:25;;;;;;;37.13;18.38;;;;;;;;;;4997644;28;20114;-73
2023/01/27 07:29:10;;;;;;;40.92;19.73;;;;;;;;;;4997412;28;20025;-74
2023/01/27 07:31:56;;;;;;;38.35;18.85;;;;;;;;;;4997058;28;20113;-74
2023/01/27 07:34:41;;;;;;;40.97;20.33;;;;;;;;;;4997352;28;20451;-73
2023/01/27 07:37:27;;;;;;;40.20;19.15;;;;;;;;;;4997654;28;20037;-74
2023/01/27 07:40:13;;;;;;;41.17;19.58;;;;;;;;;;4997115;28;20037;-73
2023/01/27 07:42:58;;;;;;;44.67;19.95;;;;;;;;;;4996895;28;20018;-73
2023/01/27 07:45:47;;;;;;;39.60;19.83;;;;;;;;;;4996395;28;20061;-73
2023/01/27 07:48:33;;;;;;;39.08;19.67;;;;;;;;;;4996506;28;20114;-73
2023/01/27 07:51:18;;;;;;;42.13;20.60;;;;;;;;;;4996134;28;20149;-73
2023/01/27 07:54:04;;;;;;;39.88;19.15;;;;;;;;;;4995307;28;20057;-73
2023/01/27 07:56:50;;;;;;;41.08;19.02;;;;;;;;;;4996240;28;20045;-73
2023/01/27 07:59:35;;;;;;;40.70;19.58;;;;;;;;;;4995186;28;20153;-74
2023/01/27 08:02:22;;;;;;;38.05;19.48;;;;;;;;;;4995655;28;20443;-73
2023/01/27 08:05:07;;;;;;;41.40;20.00;;;;;;;;;;4994255;28;20026;-74
2023/01/27 08:07:54;;;;;;;40.75;20.95;;;;;;;;;;4996130;28;20026;-73
2023/01/27 08:10:40;;;;;;;41.50;20.42;;;;;;;;;;4996300;28;20053;-72
2023/01/27 08:20:11;;;;;;;32.15;16.90;;;;;;;;;;4995999;28;20026;-74
2023/01/27 08:22:57;;;;;;;34.40;16.50;;;;;;;;;;4994602;28;20435;-74
2023/01/27 08:25:47;;;;;;;35.42;16.80;;;;;;;;;;4995912;28;20078;-73
2023/01/27 08:28:34;;;;;;;38.53;16.63;;;;;;;;;;4994809;28;20027;-73
2023/01/27 08:31:19;;;;;;;33.58;17.35;;;;;;;;;;4994000;28;20455;-73
2023/01/27 08:34:05;;;;;;;38.17;17.35;;;;;;;;;;4995612;28;20390;-74
2023/01/27 08:36:50;;;;;;;32.90;16.70;;;;;;;;;;4995528;28;20061;-73
2023/01/27 08:39:36;;;;;;;41.42;18.40;;;;;;;;;;4996185;28;20069;-73
2023/01/27 08:42:22;;;;;;;36.80;17.52;;;;;;;;;;4995354;28;20036;-73
2023/01/27 08:45:08;;;;;;;38.40;18.45;;;;;;;;;;4995308;28;20018;-72
2023/01/27 08:47:53;;;;;;;37.10;17.77;;;;;;;;;;4995391;28;20018;-74
2023/01/27 08:50:39;;;;;;;38.75;18.30;;;;;;;;;;4996126;28;20030;-74
2023/01/27 08:53:25;;;;;;;39.78;18.40;;;;;;;;;;4995523;28;20022;-74
2023/01/27 08:56:11;;;;;;;37.30;17.58;;;;;;;;;;4993856;28;20092;-74
2023/01/27 08:58:57;;;;;;;36.10;17.40;;;;;;;;;;4996019;28;20018;-74
2023/01/27 09:01:42;;;;;;;34.97;18.58;;;;;;;;;;4994889;28;20414;-74
2023/01/27 09:04:29;;;;;;;35.78;17.15;;;;;;;;;;4981272;28;20011;-74
2023/01/27 09:07:15;;;;;;;33.50;17.27;;;;;;;;;;4995734;28;20030;-73
2023/01/27 09:10:01;;;;;;;34.40;16.48;;;;;;;;;;4995073;28;20027;-73
2023/01/27 09:12:46;;;;;;;28.85;15.13;;;;;;;;;;4996284;28;20101;-74
2023/01/27 09:15:33;;;;;;;31.58;15.50;;;;;;;;;;4995600;28;20499;-75
2023/01/27 09:18:19;;;;;;;26.70;14.18;;;;;;;;;;4994825;28;20026;-74
2023/01/27 09:21:05;;;;;;;28.10;14.70;;;;;;;;;;4994832;28;20410;-73
2023/01/27 09:23:51;;;;;;;29.90;15.60;;;;;;;;;;4994567;28;20018;-74
2023/01/27 09:26:37;;;;;;;29.13;14.95;;;;;;;;;;4995230;28;20026;-73
2023/01/27 09:29:22;;;;;;;29.33;14.68;;;;;;;;;;4993487;28;20118;-73
2023/01/27 09:32:11;;;;;;;28.58;13.52;;;;;;;;;;4994278;28;20053;-74
2023/01/27 09:34:56;;;;;;;24.20;12.57;;;;;;;;;;4995045;28;20117;-73
2023/01/27 09:37:53;;;;;;;25.70;13.50;;;;;;;;;;4995772;28;20022;-73
2023/01/27 09:40:44;;;;;;;27.60;13.18;;;;;;;;;;4997677;28;20185;-74
2023/01/27 09:43:33;;;;;;;31.10;14.93;;;;;;;;;;4999081;28;20344;-74
2023/01/27 09:46:37;;;;;;;30.40;15.65;;;;;;;;;;4998464;28;20026;-74
2023/01/27 09:49:23;;;;;;;27.60;13.82;;;;;;;;;;4998925;28;20018;-74
2023/01/27 09:52:09;;;;;;;23.92;12.45;;;;;;;;;;4998167;28;20030;-73
2023/01/27 09:55:13;;;;;;;27.73;12.93;;;;;;;;;;4997976;28;20049;-74
2023/01/27 09:58:23;;;;;;;26.85;12.85;;;;;;;;;;5004449;28;20018;-73
2023/01/27 10:01:09;;;;;;;24.33;12.23;;;;;;;;;;5016366;28;20023;-74
2023/01/27 10:04:13;;;;;;;23.38;12.07;;;;;;;;;;5002476;28;20045;-74
2023/01/27 10:07:04;;;;;;;22.98;11.80;;;;;;;;;;4998821;28;20023;-76
2023/01/27 10:09:56;;;;;;;25.52;12.63;;;;;;;;;;5005757;28;20101;-72
2023/01/27 10:12:47;;;;;;;26.42;13.05;;;;;;;;;;5000029;28;20410;-75
2023/01/27 10:15:33;;;;;;;27.92;13.95;;;;;;;;;;5001971;28;20502;-74
2023/01/27 10:18:25;;;;;;;25.65;13.10;;;;;;;;;;4999840;28;20093;-76
2023/01/27 10:21:28;;;;;;;29.02;13.30;;;;;;;;;;4998470;28;20018;-75
2023/01/27 10:24:33;;;;;;;22.00;11.75;;;;;;;;;;4997555;28;20085;-74
2023/01/27 10:27:20;;;;;;;25.52;12.55;;;;;;;;;;4998461;28;20033;-74
2023/01/27 10:30:14;;;;;;;23.55;11.63;;;;;;;;;;4982906;28;20092;-73
2023/01/27 10:33:08;;;;;;;25.10;12.05;;;;;;;;;;5003889;28;20057;-74
2023/01/27 10:36:05;;;;;;;22.20;12.15;;;;;;;;;;5001436;28;20165;-74
2023/01/27 10:38:51;;;;;;;24.83;12.10;;;;;;;;;;5000986;28;20030;-74
2023/01/27 10:41:39;;;;;;;24.15;12.13;;;;;;;;;;4997359;28;20375;-74
2023/01/27 10:44:27;;;;;;;23.25;12.98;;;;;;;;;;4997051;28;20113;-73
2023/01/27 10:47:29;;;;;;;24.70;12.68;;;;;;;;;;4996966;28;20026;-74
2023/01/27 10:50:15;;;;;;;24.33;11.98;;;;;;;;;;4996030;28;20134;-72
2023/01/27 10:53:07;;;;;;;23.88;11.02;;;;;;;;;;4996507;28;20038;-73
2023/01/27 10:56:13;;;;;;;20.92;11.30;;;;;;;;;;4996330;28;20427;-74
2023/01/27 10:58:59;;;;;;;21.17;11.43;;;;;;;;;;4996236;28;20018;-74
2023/01/27 11:01:58;;;;;;;21.58;10.85;;;;;;;;;;4996877;28;20105;-75
2023/01/27 11:04:45;;;;;;;20.42;10.55;;;;;;;;;;4995357;28;20029;-75
2023/01/27 11:07:32;;;;;;;18.92;10.02;;;;;;;;;;4994630;28;20447;-75
2023/01/27 11:10:19;;;;;;;23.27;10.65;;;;;;;;;;4982945;28;20418;-73
2023/01/27 11:13:05;;;;;;;20.60;10.23;;;;;;;;;;4995503;28;20033;-74
2023/01/27 11:15:51;;;;;;;18.80;10.05;;;;;;;;;;4997297;28;20105;-76
2023/01/27 11:18:37;;;;;;;18.70;10.45;;;;;;;;;;4980928;28;20117;-76
2023/01/27 11:21:25;;;;;;;21.75;10.40;;;;;;;;;;4996439;28;20386;-75
2023/01/27 11:24:18;;;;;;;25.77;11.93;;;;;;;;;;4994010;28;20472;-75
2023/01/27 11:27:14;;;;;;;26.08;11.80;;;;;;;;;;4996601;28;20034;-75
2023/01/27 11:30:03;;;;;;;21.05;11.90;;;;;;;;;;4995662;28;20053;-77
2023/01/27 11:32:48;;;;;;;25.25;12.43;;;;;;;;;;4995113;28;20030;-74
2023/01/27 11:35:34;;;;;;;22.25;11.30;;;;;;;;;;4957597;28;1130754;-75
2023/01/27 11:38:20;;;;;;;29.02;12.45;;;;;;;;;;4998112;28;20053;-76
2023/01/27 11:41:06;;;;;;;24.52;12.50;;;;;;;;;;4996392;28;20042;-75
2023/01/27 11:43:52;;;;;;;23.25;11.95;;;;;;;;;;4996617;28;20014;-74
2023/01/27 11:46:37;;;;;;;23.30;11.38;;;;;;;;;;4982246;28;20022;-75
2023/01/27 11:49:49;;;;;;;25.40;11.63;;;;;;;;;;4983055;28;20014;-74
2023/01/27 11:52:35;;;;;;;31.92;12.45;;;;;;;;;;4982001;28;20037;-74
2023/01/27 11:55:23;;;;;;;26.83;12.50;;;;;;;;;;4996927;28;20033;-76
2023/01/27 11:58:12;;;;;;;21.92;11.55;;;;;;;;;;4981480;28;20447;-75
2023/01/27 12:00:59;;;;;;;22.77;12.02;;;;;;;;;;4982868;28;20062;-76
2023/01/27 12:03:48;;;;;;;22.48;11.57;;;;;;;;;;4995721;28;20348;-75
2023/01/27 12:06:38;;;;;;;24.38;12.23;;;;;;;;;;4995985;28;20022;-76
2023/01/27 12:09:30;;;;;;;22.85;11.55;;;;;;;;;;4996547;28;20026;-77
2023/01/27 12:12:21;;;;;;;23.95;11.98;;;;;;;;;;4996302;28;20054;-77
2023/01/27 12:15:13;;;;;;;26.10;12.73;;;;;;;;;;4995751;28;20157;-77
2023/01/27 12:18:13;;;;;;;22.15;12.60;;;;;;;;;;4982131;28;20018;-77
2023/01/27 12:21:00;;;;;;;25.13;12.23;;;;;;;;;;4982366;28;20072;-76
2023/01/27 12:23:48;;;;;;;24.95;13.60;;;;;;;;;;4995255;28;20022;-76
2023/01/27 12:26:35;;;;;;;32.92;17.95;;;;;;;;;;4994744;28;20101;-76
2023/01/27 12:29:25;;;;;;;38.90;20.77;;;;;;;;;;4975779;28;20022;-75
2023/01/27 12:32:13;;;;;;;37.88;14.90;;;;;;;;;;4975432;28;20030;-76
2023/01/27 12:35:00;;;;;;;25.33;12.68;;;;;;;;;;4961546;28;20078;-76
2023/01/27 12:37:47;;;;;;;26.98;13.13;;;;;;;;;;4962306;28;20034;-76
2023/01/27 12:40:33;;;;;;;25.52;13.25;;;;;;;;;;4975654;28;20034;-75
2023/01/27 12:43:19;;;;;;;23.27;13.15;;;;;;;;;;4975528;28;20089;-75
2023/01/27 12:46:18;;;;;;;23.65;12.07;;;;;;;;;;4975035;28;20336;-74
2023/01/27 12:49:13;;;;;;;19.33;11.20;;;;;;;;;;4975458;28;20022;-75
2023/01/27 12:52:03;;;;;;;25.20;13.13;;;;;;;;;;4975575;28;20023;-73
2023/01/27 12:54:50;;;;;;;26.55;13.15;;;;;;;;;;4975469;28;20085;-75
2023/01/27 12:57:41;;;;;;;36.28;20.00;;;;;;;;;;4975351;28;20022;-77
2023/01/27 13:00:28;;;;;;;21.52;11.05;;;;;;;;;;4975497;28;20023;-76
2023/01/27 13:03:13;;;;;;;22.63;11.98;;;;;;;;;;4962090;28;20089;-77
2023/01/27 13:05:59;;;;;;;18.75;10.68;;;;;;;;;;4975440;28;20023;-77
2023/01/27 13:08:46;;;;;;;22.08;11.45;;;;;;;;;;4976235;28;20069;-77
2023/01/27 13:11:36;;;;;;;22.60;10.30;;;;;;;;;;4975706;28;20078;-77
2023/01/27 13:14:21;;;;;;;20.33;10.05;;;;;;;;;;4976192;28;20023;-77
2023/01/27 13:17:25;;;;;;;21.25;10.55;;;;;;;;;;4979610;28;20042;-75
2023/01/27 13:20:16;;;;;;;27.08;14.27;;;;;;;;;;4984071;28;20034;-75
2023/01/27 13:23:05;;;;;;;20.33;10.85;;;;;;;;;;4985589;28;20023;-76
2023/01/27 13:26:04;;;;;;;22.35;11.10;;;;;;;;;;5011297;28;20033;-74
2023/01/27 13:28:52;;;;;;;21.88;10.85;;;;;;;;;;5001378;28;20559;-75
2023/01/27 13:31:50;;;;;;;22.35;11.70;;;;;;;;;;4999180;28;20030;-77
2023/01/27 13:34:45;;;;;;;22.30;12.52;;;;;;;;;;4998712;28;20495;-77
2023/01/27 13:37:47;;;;;;;24.70;12.23;;;;;;;;;;4985377;28;20026;-76
2023/01/27 13:40:36;;;;;;;28.88;14.48;;;;;;;;;;4998818;28;20069;-76
2023/01/27 13:43:28;;;;;;;26.20;12.77;;;;;;;;;;5001065;28;20457;-75
2023/01/27 13:46:43;;;;;;;26.67;12.48;;;;;;;;;;4998899;28;20411;-76
2023/01/27 13:49:32;;;;;;;24.95;12.73;;;;;;;;;;4978945;28;20030;-76
2023/01/27 13:52:17;;;;;;;26.20;11.93;;;;;;;;;;5006835;28;20015;-75
2023/01/27 13:55:03;;;;;;;24.95;12.57;;;;;;;;;;5005688;28;20022;-77
2023/01/27 13:57:53;;;;;;;25.33;12.27;;;;;;;;;;4995956;28;20045;-76
2023/01/27 14:00:47;;;;;;;21.77;11.32;;;;;;;;;;5007415;28;20026;-75
2023/01/27 14:03:51;;;;;;;23.23;11.40;;;;;;;;;;4998113;28;20098;-76
2023/01/27 14:06:55;;;;;;;20.90;10.52;;;;;;;;;;4998071;28;20022;-77
2023/01/27 14:10:05;;;;;;;19.15;9.13;;;;;;;;;;4998280;28;20526;-76
2023/01/27 14:12:55;;;;;;;16.35;9.13;;;;;;;;;;4984389;28;20042;-76
2023/01/27 14:16:16;;;;;;;14.68;8.95;;;;;;;;;;4984169;28;20022;-77
2023/01/27 14:19:08;;;;;;;18.05;9.82;;;;;;;;;;4900111;29;20104;-76
2023/01/27 14:22:12;;;;;;;15.55;7.95;;;;;;;;;;4997518;28;20023;-76
2023/01/27 14:25:03;;;;;;;20.52;11.48;;;;;;;;;;4997123;28;20018;-76
2023/01/27 14:27:52;;;;;;;13.77;7.70;;;;;;;;;;4997631;28;20067;-76
2023/01/27 14:30:40;;;;;;;23.58;15.07;;;;;;;;;;4997349;28;20022;-75
2023/01/27 14:33:34;;;;;;;21.30;12.30;;;;;;;;;;4983960;28;20026;-76
2023/01/27 14:36:20;;;;;;;18.02;10.63;;;;;;;;;;4997250;28;20061;-76
2023/01/27 14:39:11;;;;;;;18.52;9.10;;;;;;;;;;4997533;28;20018;-77
2023/01/27 14:42:01;;;;;;;15.68;7.75;;;;;;;;;;4984086;28;20019;-75
2023/01/27 14:44:47;;;;;;;16.70;9.45;;;;;;;;;;4997184;28;20053;-75
2023/01/27 14:47:42;;;;;;;17.60;9.48;;;;;;;;;;4984478;28;20030;-76
2023/01/27 14:50:36;;;;;;;17.38;9.48;;;;;;;;;;4997729;28;20030;-76
2023/01/27 14:53:50;;;;;;;18.30;9.00;;;;;;;;;;4984031;28;20037;-76
2023/01/27 14:56:48;;;;;;;17.02;9.50;;;;;;;;;;4983517;28;20042;-76
2023/01/27 14:59:53;;;;;;;19.17;10.05;;;;;;;;;;4997152;28;20029;-78
2023/01/27 15:03:02;;;;;;;15.70;8.85;;;;;;;;;;4979654;28;20038;-77
2023/01/27 15:05:59;;;;;;;17.77;9.95;;;;;;;;;;4996673;28;20031;-76
2023/01/27 15:08:56;;;;;;;20.63;10.82;;;;;;;;;;4996886;28;20034;-73
2023/01/27 15:11:42;;;;;;;19.38;9.07;;;;;;;;;;4982543;28;20033;-75
2023/01/27 15:14:28;;;;;;;15.00;8.63;;;;;;;;;;4996689;28;20025;-78
2023/01/27 15:17:32;;;;;;;13.75;7.65;;;;;;;;;;4983307;28;20022;-77
2023/01/27 15:20:36;;;;;;;16.85;8.35;;;;;;;;;;4982929;28;20034;-77
2023/01/27 15:23:25;;;;;;;16.30;9.30;;;;;;;;;;4996653;28;20014;-76
2023/01/27 15:26:12;;;;;;;18.35;10.35;;;;;;;;;;4983918;28;20022;-76
2023/01/27 15:28:58;;;;;;;19.38;11.07;;;;;;;;;;4982769;28;20435;-75
2023/01/27 15:32:04;;;;;;;20.60;11.55;;;;;;;;;;4998384;28;20451;-78
2023/01/27 15:34:51;;;;;;;20.92;10.45;;;;;;;;;;4981871;28;20046;-77
2023/01/27 15:37:53;;;;;;;23.20;9.85;;;;;;;;;;4996713;28;20340;-77
2023/01/27 15:40:57;;;;;;;18.73;9.57;;;;;;;;;;4982293;28;20505;-76
2023/01/27 15:44:01;;;;;;;16.92;10.02;;;;;;;;;;4982624;28;20140;-73
2023/01/27 15:46:48;;;;;;;21.80;10.90;;;;;;;;;;4982745;28;20026;-77
2023/01/27 15:49:40;;;;;;;18.90;10.13;;;;;;;;;;4996798;28;20543;-76
2023/01/27 15:52:31;;;;;;;23.25;13.00;;;;;;;;;;4982187;28;20018;-75
2023/01/27 15:55:37;;;;;;;19.45;9.95;;;;;;;;;;4995859;28;20470;-76
2023/01/27 15:58:39;;;;;;;22.15;11.32;;;;;;;;;;4995674;28;20156;-76
2023/01/27 16:01:29;;;;;;;23.20;11.68;;;;;;;;;;4995893;28;20493;-75
2023/01/27 16:04:14;;;;;;;22.38;10.93;;;;;;;;;;4982331;28;20037;-77
2023/01/27 16:07:01;;;;;;;23.25;12.18;;;;;;;;;;4995540;28;20022;-75
2023/01/27 16:09:49;;;;;;;22.23;11.63;;;;;;;;;;4996283;28;20101;-75
2023/01/27 16:12:37;;;;;;;26.63;13.25;;;;;;;;;;4994809;28;20026;-76
2023/01/27 16:15:28;;;;;;;23.65;12.77;;;;;;;;;;4996137;28;20100;-74
2023/01/27 16:18:14;;;;;;;22.17;11.88;;;;;;;;;;4995595;28;20355;-76
2023/01/27 16:21:02;;;;;;;23.38;13.02;;;;;;;;;;4981493;28;20022;-75
2023/01/27 16:23:50;;;;;;;62.20;30.85;;;;;;;;;;4981749;28;20019;-74
2023/01/27 16:27:01;;;;;;;27.80;15.20;;;;;;;;;;4981836;28;20501;-73
2023/01/27 16:29:49;;;;;;;24.48;12.00;;;;;;;;;;4976859;28;20089;-76
2023/01/27 16:32:37;;;;;;;21.48;11.52;;;;;;;;;;4995315;28;20025;-76
2023/01/27 16:35:23;;;;;;;23.15;12.60;;;;;;;;;;4975657;28;20061;-75
2023/01/27 16:38:20;;;;;;;23.83;12.25;;;;;;;;;;4976254;28;20019;-74
2023/01/27 16:41:15;;;;;;;25.58;12.73;;;;;;;;;;4975979;28;20018;-74
2023/01/27 16:44:01;;;;;;;28.48;13.07;;;;;;;;;;4976067;28;20427;-75
2023/01/27 16:46:53;;;;;;;24.38;12.85;;;;;;;;;;4975687;28;20027;-75
2023/01/27 16:49:40;;;;;;;22.90;12.68;;;;;;;;;;4975450;28;20081;-74
2023/01/27 16:52:28;;;;;;;23.63;13.23;;;;;;;;;;4975709;28;20443;-75
2023/01/27 16:55:20;;;;;;;29.55;14.32;;;;;;;;;;4975268;28;20084;-77
2023/01/27 16:58:19;;;;;;;28.25;14.13;;;;;;;;;;4975691;28;20469;-75
2023/01/27 17:01:05;;;;;;;21.15;12.57;;;;;;;;;;4975202;28;20086;-77